createdAt,value
2023-04-29T11:55:10.589Z,5.75
2023-04-29T12:00:16.692Z,7.13
2023-04-29T12:05:20.503Z,5.50
2023-04-29T12:10:25.576Z,8.18
2023-04-29T12:15:29.670Z,8.57
2023-04-29T12:20:33.295Z,7.05
2023-04-29T12:25:38.388Z,9.25
2023-04-29T12:30:42.094Z,8.25
2023-04-29T12:35:45.647Z,7.72
2023-04-29T12:40:51.044Z,7.97
2023-04-29T12:45:56.456Z,7.80
2023-04-29T12:51:00.342Z,8.95
2023-04-29T12:56:05.450Z,6.32
2023-04-29T13:01:08.624Z,9.75
2023-04-29T13:06:11.933Z,6.00
2023-04-29T13:11:16.559Z,5.97
2023-04-29T13:16:20.253Z,7.03
2023-04-29T13:21:23.592Z,6.90
2023-04-29T13:26:28.202Z,7.05
2023-04-29T13:31:31.599Z,7.22
2023-04-29T13:36:34.836Z,7.75
2023-04-29T13:41:42.206Z,7.47
2023-04-29T13:46:48.671Z,7.85
2023-04-29T13:57:36.856Z,6.95
2023-04-29T14:02:25.985Z,7.40
2023-04-29T14:07:29.628Z,6.70
2023-04-29T14:12:34.277Z,7.20
2023-04-29T14:17:37.499Z,7.93
2023-04-29T14:22:40.767Z,8.23
2023-04-29T14:27:45.746Z,7.82
2023-04-29T14:34:53.293Z,8.20
2023-04-29T14:39:56.999Z,6.63
2023-04-29T14:45:03.701Z,5.60
2023-04-29T14:50:10.255Z,5.50
2023-04-29T14:55:13.929Z,5.47
2023-04-29T15:00:18.793Z,6.43
2023-04-29T15:05:23.788Z,8.25
2023-04-29T15:10:27.352Z,6.65
2023-04-29T15:15:31.299Z,6.43
2023-04-29T15:20:36.738Z,5.90
2023-04-29T15:25:40.723Z,6.07
2023-04-29T15:30:44.287Z,6.85
2023-04-29T15:35:49.994Z,6.00
2023-04-29T15:40:58.902Z,6.18
2023-04-29T15:46:02.764Z,6.15
2023-04-29T15:51:10.046Z,5.85
2023-04-29T15:56:13.651Z,7.13
2023-04-29T16:01:17.274Z,6.53
2023-04-29T16:06:22.238Z,10.95
2023-04-29T16:11:26.099Z,8.48
2023-04-29T16:16:29.692Z,7.60
2023-04-29T16:21:34.710Z,5.50
2023-04-29T16:26:40.334Z,5.13
2023-04-29T16:31:43.998Z,5.07
2023-04-29T16:36:49.013Z,4.88
2023-04-29T16:41:52.736Z,5.05
2023-04-29T16:46:56.885Z,4.07
2023-04-29T16:52:01.861Z,4.15
2023-04-29T16:57:05.626Z,5.13
2023-04-29T17:02:09.259Z,3.70
2023-04-29T17:07:15.947Z,3.30
2023-04-29T17:12:19.550Z,3.78
2023-04-29T17:17:23.166Z,4.22
2023-04-29T17:22:28.153Z,4.82
2023-04-29T17:27:31.779Z,3.65
2023-04-29T17:32:39.153Z,3.88
2023-04-29T17:37:44.226Z,2.92
2023-04-29T17:42:47.828Z,3.88
2023-04-29T17:47:51.479Z,3.65
2023-04-29T17:52:56.569Z,3.13
2023-04-29T17:58:00.520Z,2.55
2023-04-29T18:03:04.211Z,2.70
2023-04-29T18:08:09.379Z,3.03
2023-04-29T18:13:13.280Z,2.72
2023-04-29T18:18:17.061Z,2.00
2023-04-29T18:23:22.901Z,2.38
2023-04-29T18:28:26.450Z,2.38
2023-04-29T18:33:31.143Z,2.20
2023-04-29T18:38:36.252Z,2.40
2023-04-29T18:43:39.885Z,2.08
2023-04-29T18:48:43.942Z,2.10
2023-04-29T18:53:49.518Z,2.47
2023-04-29T18:58:53.123Z,1.98
2023-04-29T19:03:57.569Z,2.20
2023-04-29T19:09:02.524Z,1.95
2023-04-29T19:14:06.323Z,1.70
2023-04-29T19:19:10.078Z,1.80
2023-04-29T19:24:15.390Z,1.90
2023-04-29T19:29:18.962Z,2.00
2023-04-29T19:34:22.895Z,1.90
2023-04-29T19:39:28.876Z,2.33
2023-04-29T19:44:32.366Z,1.90
2023-04-29T19:49:36.093Z,1.80
2023-04-29T19:54:41.697Z,2.20
2023-04-29T19:59:45.294Z,2.67
2023-04-29T20:04:49.341Z,2.20
2023-04-29T20:09:54.602Z,2.25
2023-04-29T20:14:58.537Z,2.03
2023-04-29T20:20:02.465Z,2.10
2023-04-29T20:25:08.104Z,2.38
2023-04-29T20:30:11.790Z,2.67
2023-04-29T20:35:15.815Z,2.78
2023-04-29T20:40:20.896Z,2.63
2023-04-29T20:45:24.903Z,3.25
2023-04-29T20:50:28.554Z,3.58
2023-04-29T20:55:33.528Z,3.42
2023-04-29T21:00:37.278Z,4.07
2023-04-29T21:05:40.875Z,3.65
2023-04-29T21:10:45.878Z,4.30
2023-04-29T21:15:49.505Z,4.15
2023-04-29T21:20:53.045Z,4.93
2023-04-29T21:25:57.922Z,4.68
2023-04-29T21:31:01.494Z,5.38
2023-04-29T21:36:05.205Z,5.93
2023-04-29T21:41:10.848Z,5.82
2023-04-29T21:46:14.455Z,5.93
2023-04-29T21:51:19.963Z,5.63
2023-04-29T21:56:24.990Z,6.20
2023-04-29T22:01:40.595Z,6.38
2023-04-29T22:06:44.158Z,6.93
2023-04-29T22:11:49.370Z,6.43
2023-04-29T22:16:52.984Z,7.22
2023-04-29T22:21:56.469Z,7.05
2023-04-29T22:27:01.759Z,7.45
2023-04-29T22:32:05.622Z,7.15
2023-04-29T22:37:09.343Z,8.02
2023-04-29T22:42:15.731Z,7.97
2023-04-29T22:47:19.470Z,8.25
2023-04-29T22:52:22.993Z,7.82
2023-04-29T22:57:27.872Z,8.40
2023-04-29T23:02:31.508Z,8.13
2023-04-29T23:07:35.209Z,7.97
2023-04-29T23:12:40.550Z,8.50
2023-04-29T23:17:44.436Z,9.15
2023-04-29T23:22:47.978Z,8.20
2023-04-29T23:27:52.878Z,8.65
2023-04-29T23:32:56.460Z,8.57
2023-04-29T23:38:00.194Z,8.52
2023-04-29T23:43:05.236Z,9.35
2023-04-29T23:48:09.429Z,9.10
2023-04-29T23:53:13.073Z,9.32
2023-04-29T23:58:17.957Z,8.98
